createdAt,value
2022-12-08T00:01:00.559Z,1.44
2022-12-08T00:03:48.152Z,1.44
2022-12-08T00:06:35.758Z,1.40
2022-12-08T00:09:23.409Z,1.41
2022-12-08T00:12:11.056Z,1.44
2022-12-08T00:14:58.658Z,1.33
2022-12-08T00:17:46.293Z,1.48
2022-12-08T00:20:33.871Z,1.69
2022-12-08T00:23:21.470Z,2.16
2022-12-08T00:26:09.057Z,2.82
2022-12-08T00:28:56.629Z,2.88
2022-12-08T00:31:44.339Z,3.14
2022-12-08T00:34:31.969Z,3.32
2022-12-08T00:37:19.546Z,3.23
2022-12-08T00:40:07.273Z,3.22
2022-12-08T00:42:54.905Z,3.46
2022-12-08T00:45:42.548Z,3.42
2022-12-08T00:48:30.186Z,3.71
2022-12-08T00:51:17.746Z,4.25
2022-12-08T00:54:05.324Z,4.27
2022-12-08T00:56:52.898Z,3.10
2022-12-08T00:59:40.471Z,2.68
2022-12-08T01:02:28.039Z,3.35
2022-12-08T01:05:15.642Z,3.98
2022-12-08T01:08:03.276Z,4.54
2022-12-08T01:10:50.945Z,4.86
2022-12-08T01:13:38.514Z,5.19
2022-12-08T01:16:26.165Z,4.71
2022-12-08T01:19:13.820Z,4.34
2022-12-08T01:22:01.406Z,3.46
2022-12-08T01:24:49.032Z,3.04
2022-12-08T01:27:36.601Z,3.39
2022-12-08T01:30:24.335Z,3.36
2022-12-08T01:33:11.935Z,2.48
2022-12-08T01:35:59.579Z,2.35
2022-12-08T01:38:47.167Z,2.39
2022-12-08T01:41:34.780Z,3.47
2022-12-08T01:44:22.411Z,4.01
2022-12-08T01:47:10.010Z,4.47
2022-12-08T01:49:57.590Z,4.70
2022-12-08T01:52:45.133Z,4.91
2022-12-08T01:55:32.730Z,5.29
2022-12-08T01:58:20.318Z,5.38
2022-12-08T02:01:07.968Z,5.55
2022-12-08T02:03:55.567Z,5.40
2022-12-08T02:06:43.166Z,5.49
2022-12-08T02:09:30.755Z,5.67
2022-12-08T02:12:18.317Z,5.89
2022-12-08T02:15:05.897Z,6.08
2022-12-08T02:17:53.533Z,6.10
2022-12-08T02:20:41.097Z,5.65
2022-12-08T02:23:28.707Z,4.63
2022-12-08T02:26:16.277Z,3.94
2022-12-08T02:29:03.852Z,3.56
2022-12-08T02:31:51.418Z,3.27
2022-12-08T02:34:39.026Z,3.30
2022-12-08T02:37:26.607Z,3.71
2022-12-08T02:40:14.249Z,3.98
2022-12-08T02:43:01.833Z,3.15
2022-12-08T02:45:49.456Z,2.91
2022-12-08T02:48:37.064Z,2.79
2022-12-08T02:51:24.619Z,2.72
2022-12-08T02:54:12.218Z,2.41
2022-12-08T02:56:59.789Z,3.05
2022-12-08T02:59:47.393Z,3.53
2022-12-08T03:02:35.027Z,4.12
2022-12-08T03:05:22.647Z,4.58
2022-12-08T03:08:10.272Z,4.82
2022-12-08T03:10:57.951Z,4.91
2022-12-08T03:13:45.517Z,4.24
2022-12-08T03:16:33.103Z,4.79
2022-12-08T03:19:20.651Z,3.94
2022-12-08T03:22:08.265Z,3.57
2022-12-08T03:24:55.827Z,3.68
2022-12-08T03:27:43.445Z,3.23
2022-12-08T03:30:31.052Z,3.21
2022-12-08T03:33:18.641Z,3.61
2022-12-08T03:36:06.221Z,3.85
2022-12-08T03:38:53.833Z,3.86
2022-12-08T03:41:41.423Z,4.09
2022-12-08T03:44:29.003Z,4.39
2022-12-08T03:47:16.588Z,4.72
2022-12-08T03:50:04.590Z,5.06
2022-12-08T03:52:52.291Z,5.07
2022-12-08T03:55:39.869Z,5.34
2022-12-08T03:58:27.450Z,5.59
2022-12-08T04:01:15.023Z,4.95
2022-12-08T04:04:02.590Z,5.30
2022-12-08T04:06:50.274Z,5.50
2022-12-08T04:09:39.823Z,5.46
2022-12-08T04:12:27.417Z,5.53
2022-12-08T04:15:28.281Z,5.48
2022-12-08T04:18:16.874Z,5.80
2022-12-08T04:21:04.471Z,5.90
2022-12-08T04:23:56.094Z,6.09
2022-12-08T04:26:46.838Z,6.30
2022-12-08T04:29:34.421Z,6.38
2022-12-08T04:32:21.983Z,5.29
2022-12-08T04:35:09.569Z,5.95
2022-12-08T04:37:57.182Z,6.15
2022-12-08T04:40:44.739Z,6.29
2022-12-08T04:43:32.342Z,6.32
2022-12-08T04:46:19.950Z,6.48
2022-12-08T04:49:07.675Z,6.57
2022-12-08T04:51:55.240Z,6.56
2022-12-08T04:54:42.834Z,6.49
2022-12-08T04:57:30.390Z,6.49
2022-12-08T05:00:17.985Z,6.63
2022-12-08T05:03:05.609Z,6.30
2022-12-08T05:05:53.285Z,6.21
2022-12-08T05:08:40.852Z,6.45
2022-12-08T05:11:28.446Z,6.54
2022-12-08T05:14:16.058Z,6.63
2022-12-08T05:17:09.172Z,6.48
2022-12-08T05:19:57.198Z,6.47
2022-12-08T05:22:44.799Z,6.64
2022-12-08T05:25:32.385Z,6.77
2022-12-08T05:28:40.646Z,6.82
2022-12-08T05:31:27.562Z,6.72
2022-12-08T05:34:15.177Z,6.76
2022-12-08T05:37:02.869Z,6.77
2022-12-08T05:39:52.436Z,6.83
2022-12-08T05:42:40.134Z,6.98
2022-12-08T05:45:27.749Z,6.81
2022-12-08T05:48:15.385Z,6.86
2022-12-08T05:51:02.980Z,6.95
2022-12-08T05:53:50.602Z,7.06
2022-12-08T05:56:38.202Z,7.02
2022-12-08T05:59:25.788Z,6.97
2022-12-08T06:02:13.545Z,7.02
2022-12-08T06:05:01.243Z,7.04
2022-12-08T06:07:48.842Z,6.90
2022-12-08T06:10:36.467Z,6.63
2022-12-08T06:13:24.075Z,6.62
2022-12-08T06:16:11.725Z,6.67
2022-12-08T06:18:59.313Z,6.86
2022-12-08T06:21:46.882Z,6.72
2022-12-08T06:24:34.495Z,6.66
2022-12-08T06:27:22.060Z,6.76
2022-12-08T06:30:09.637Z,6.64
2022-12-08T06:32:57.207Z,6.64
2022-12-08T06:35:44.806Z,6.50
2022-12-08T06:38:32.418Z,6.32
2022-12-08T06:41:19.980Z,6.49
2022-12-08T06:44:07.566Z,6.62
2022-12-08T06:46:55.156Z,6.48
2022-12-08T06:49:42.900Z,6.71
2022-12-08T06:52:30.567Z,6.57
2022-12-08T06:55:42.393Z,6.58
2022-12-08T06:58:25.771Z,6.64
2022-12-08T07:01:13.471Z,6.74
2022-12-08T07:04:01.086Z,6.72
2022-12-08T07:06:48.680Z,6.64
2022-12-08T07:09:36.244Z,6.61
2022-12-08T07:12:23.899Z,6.67
2022-12-08T07:15:11.483Z,6.72
2022-12-08T07:18:00.331Z,6.81
2022-12-08T07:20:48.211Z,6.81
2022-12-08T07:23:35.797Z,6.84
2022-12-08T07:26:23.403Z,6.95
2022-12-08T07:29:11.049Z,6.88
2022-12-08T07:31:58.607Z,6.92
2022-12-08T07:34:47.228Z,6.84
2022-12-08T07:37:35.058Z,6.86
2022-12-08T07:40:22.615Z,6.15
2022-12-08T07:43:10.242Z,6.62
2022-12-08T07:45:57.906Z,6.80
2022-12-08T07:48:45.525Z,6.71
2022-12-08T07:51:33.135Z,6.70
2022-12-08T07:54:20.718Z,6.81
2022-12-08T07:57:08.297Z,6.56
2022-12-08T07:59:55.904Z,6.43
2022-12-08T08:02:43.599Z,6.44
2022-12-08T08:05:31.224Z,6.33
2022-12-08T08:07:58.686Z,6.62
2022-12-08T08:10:26.612Z,6.70
2022-12-08T08:12:54.584Z,6.68
2022-12-08T08:15:22.046Z,6.81
2022-12-08T08:17:49.700Z,6.83
2022-12-08T08:20:17.422Z,6.95
2022-12-08T08:22:44.759Z,6.99
2022-12-08T08:25:12.090Z,6.94
2022-12-08T08:27:39.448Z,6.88
2022-12-08T08:30:07.095Z,7.05
2022-12-08T08:32:34.982Z,7.02
2022-12-08T08:35:02.772Z,7.09
2022-12-08T08:37:30.612Z,6.92
2022-12-08T08:39:57.925Z,7.17
2022-12-08T08:42:25.259Z,7.13
2022-12-08T08:44:52.618Z,6.70
2022-12-08T08:47:19.983Z,6.85
2022-12-08T08:49:47.403Z,6.74
2022-12-08T08:52:15.083Z,6.81
2022-12-08T08:54:42.390Z,6.82
2022-12-08T08:57:09.780Z,6.89
2022-12-08T08:59:37.089Z,6.80
2022-12-08T09:02:04.679Z,6.64
2022-12-08T09:04:32.061Z,6.58
2022-12-08T09:06:59.543Z,6.87
2022-12-08T09:09:26.792Z,6.95
2022-12-08T09:11:54.085Z,6.92
2022-12-08T09:14:21.433Z,6.46
2022-12-08T09:16:48.838Z,6.69
2022-12-08T09:19:16.134Z,6.79
2022-12-08T09:21:43.412Z,6.37
2022-12-08T09:24:10.754Z,6.60
2022-12-08T09:26:38.129Z,6.50
2022-12-08T09:29:05.487Z,6.04
2022-12-08T09:31:32.955Z,5.23
2022-12-08T09:34:00.299Z,5.85
2022-12-08T09:36:27.638Z,5.83
2022-12-08T09:38:55.043Z,6.02
2022-12-08T09:41:22.363Z,6.15
2022-12-08T09:43:50.037Z,6.27
2022-12-08T09:46:17.625Z,6.41
2022-12-08T09:48:47.386Z,6.12
2022-12-08T09:51:23.562Z,6.51
2022-12-08T09:53:51.023Z,6.61
2022-12-08T09:56:18.395Z,6.76
2022-12-08T09:58:46.153Z,6.66
2022-12-08T10:01:13.678Z,6.68
2022-12-08T10:03:41.011Z,6.58
2022-12-08T10:06:10.318Z,6.34
2022-12-08T10:08:37.624Z,6.34
2022-12-08T10:11:04.927Z,6.36
2022-12-08T10:13:32.234Z,6.45
2022-12-08T10:15:59.544Z,6.65
2022-12-08T10:18:26.860Z,6.83
2022-12-08T10:20:54.145Z,6.19
2022-12-08T10:23:21.591Z,6.30
2022-12-08T10:25:48.951Z,6.79
2022-12-08T10:28:16.282Z,6.74
2022-12-08T10:30:43.547Z,6.46
2022-12-08T10:33:11.212Z,6.21
2022-12-08T10:35:57.434Z,6.35
2022-12-08T10:38:43.346Z,6.22
2022-12-08T10:41:30.940Z,6.38
2022-12-08T10:44:20.365Z,5.97
2022-12-08T10:47:07.995Z,6.21
2022-12-08T10:49:55.607Z,5.92
2022-12-08T10:52:43.195Z,5.95
2022-12-08T10:55:30.747Z,6.26
2022-12-08T10:58:18.337Z,6.46
2022-12-08T11:01:06.054Z,6.57
2022-12-08T11:03:53.747Z,6.70
2022-12-08T11:06:41.320Z,6.93
2022-12-08T11:09:28.887Z,6.89
2022-12-08T11:12:16.482Z,7.04
2022-12-08T11:15:04.050Z,7.02
2022-12-08T11:17:57.398Z,7.28
2022-12-08T11:20:45.283Z,7.47
2022-12-08T11:23:32.897Z,7.69
2022-12-08T11:26:20.482Z,7.83
2022-12-08T11:29:08.047Z,7.60
2022-12-08T11:31:55.728Z,7.19
2022-12-08T11:34:43.429Z,7.13
2022-12-08T11:37:34.741Z,7.42
2022-12-08T11:40:22.913Z,7.47
2022-12-08T11:43:11.695Z,7.59
2022-12-08T11:45:59.415Z,7.68
2022-12-08T11:48:47.061Z,7.83
2022-12-08T11:51:34.649Z,7.85
2022-12-08T11:54:22.262Z,7.90
2022-12-08T11:57:09.899Z,7.66
2022-12-08T11:59:57.506Z,7.20
2022-12-08T12:02:45.179Z,7.16
2022-12-08T12:06:05.328Z,6.50
2022-12-08T12:08:40.415Z,6.95
2022-12-08T12:11:28.098Z,6.78
2022-12-08T12:14:15.689Z,5.58
2022-12-08T12:17:03.453Z,3.97
2022-12-08T12:19:51.145Z,3.76
2022-12-08T12:22:38.742Z,4.10
2022-12-08T12:25:26.307Z,4.48
2022-12-08T12:28:13.899Z,4.93
2022-12-08T12:31:01.528Z,5.02
2022-12-08T12:33:49.177Z,5.29
2022-12-08T12:36:36.789Z,5.71
2022-12-08T12:39:24.372Z,4.97
2022-12-08T12:42:11.982Z,5.63
2022-12-08T12:44:59.600Z,5.93
2022-12-08T12:47:52.397Z,6.07
2022-12-08T12:50:43.374Z,6.54
2022-12-08T12:53:30.994Z,6.39
2022-12-08T12:56:18.586Z,6.31
2022-12-08T12:59:08.174Z,6.01
2022-12-08T13:01:55.767Z,6.57
2022-12-08T13:04:43.380Z,6.94
2022-12-08T13:07:31.079Z,7.25
2022-12-08T13:10:18.661Z,7.63
2022-12-08T13:13:06.282Z,7.84
2022-12-08T13:15:53.892Z,7.75
2022-12-08T13:18:41.498Z,7.37
2022-12-08T13:21:29.121Z,7.26
2022-12-08T13:24:16.767Z,6.67
2022-12-08T13:27:04.348Z,7.00
2022-12-08T13:29:51.967Z,7.09
2022-12-08T13:33:16.245Z,7.52
2022-12-08T13:35:47.091Z,7.30
2022-12-08T13:38:34.683Z,7.85
2022-12-08T13:41:22.282Z,7.66
2022-12-08T13:45:03.688Z,7.62
2022-12-08T13:47:33.329Z,7.53
2022-12-08T13:57:02.435Z,7.67
2022-12-08T13:59:44.651Z,8.01
2022-12-08T14:02:32.264Z,8.10
2022-12-08T14:05:26.599Z,7.99
2022-12-08T14:08:58.006Z,7.90
2022-12-08T14:11:35.030Z,7.69
2022-12-08T14:14:45.894Z,7.42
2022-12-08T14:17:30.199Z,7.34
2022-12-08T14:20:17.786Z,7.48
2022-12-08T14:23:05.392Z,7.17
2022-12-08T14:25:52.971Z,7.71
2022-12-08T14:28:44.780Z,7.99
2022-12-08T14:31:32.948Z,8.10
2022-12-08T14:34:20.585Z,7.38
2022-12-08T14:37:08.171Z,5.96
2022-12-08T14:39:55.802Z,5.55
2022-12-08T14:42:43.428Z,4.90
2022-12-08T14:45:31.106Z,4.87
2022-12-08T14:48:18.711Z,5.02
2022-12-08T14:51:06.319Z,4.73
2022-12-08T14:53:53.987Z,4.99
2022-12-08T14:56:41.625Z,5.14
2022-12-08T14:59:29.229Z,5.20
2022-12-08T15:02:16.831Z,5.15
2022-12-08T15:05:04.500Z,4.97
2022-12-08T15:07:52.208Z,5.15
2022-12-08T15:10:39.851Z,5.60
2022-12-08T15:13:27.435Z,5.60
2022-12-08T15:16:15.055Z,5.56
2022-12-08T15:19:02.678Z,4.93
2022-12-08T15:21:50.271Z,5.32
2022-12-08T15:24:34.827Z,5.82
2022-12-08T15:27:02.202Z,5.48
2022-12-08T15:29:48.398Z,5.50
2022-12-08T15:32:34.377Z,5.32
2022-12-08T15:35:21.993Z,5.12
2022-12-08T15:38:09.564Z,4.82
2022-12-08T15:40:57.163Z,4.30
2022-12-08T15:43:44.742Z,4.13
2022-12-08T15:46:32.396Z,4.73
2022-12-08T15:49:20.037Z,4.79
2022-12-08T15:52:11.694Z,5.02
2022-12-08T15:54:59.568Z,5.19
2022-12-08T16:00:55.459Z,4.77
2022-12-08T16:04:27.532Z,5.07
2022-12-08T16:07:20.432Z,5.58
2022-12-08T16:09:58.617Z,5.21
2022-12-08T16:13:48.211Z,4.76
2022-12-08T16:16:00.641Z,3.89
2022-12-08T16:18:48.851Z,3.72
2022-12-08T16:24:23.778Z,3.10
2022-12-08T16:30:17.124Z,2.42
2022-12-08T16:33:04.728Z,2.49
2022-12-08T16:35:53.608Z,2.33
2022-12-08T16:38:41.196Z,2.49
2022-12-08T16:41:28.799Z,2.45
2022-12-08T16:44:16.364Z,2.35
2022-12-08T16:47:03.968Z,2.22
2022-12-08T16:49:51.599Z,2.58
2022-12-08T16:52:39.193Z,3.55
2022-12-08T16:55:26.766Z,3.71
2022-12-08T16:58:14.360Z,3.74
2022-12-08T17:01:02.005Z,4.17
2022-12-08T17:04:14.465Z,3.97
2022-12-08T17:06:57.146Z,3.55
2022-12-08T17:09:44.745Z,4.05
2022-12-08T17:12:32.375Z,3.71
2022-12-08T17:15:19.976Z,3.28
2022-12-08T17:18:07.552Z,3.11
2022-12-08T17:20:55.139Z,3.33
2022-12-08T17:23:42.730Z,3.46
2022-12-08T17:26:30.362Z,3.59
2022-12-08T17:29:17.964Z,4.13
2022-12-08T17:32:05.562Z,4.00
2022-12-08T17:34:53.222Z,4.15
2022-12-08T17:37:40.802Z,4.47
2022-12-08T17:40:28.612Z,4.84
2022-12-08T17:43:16.201Z,5.12
2022-12-08T17:46:03.893Z,5.16
2022-12-08T17:48:51.491Z,5.33
2022-12-08T17:51:39.079Z,5.41
2022-12-08T17:54:26.656Z,5.67
2022-12-08T17:57:14.230Z,5.18
2022-12-08T18:00:01.863Z,4.00
2022-12-08T18:02:49.528Z,3.72
2022-12-08T18:05:37.179Z,3.21
2022-12-08T18:08:24.863Z,2.71
2022-12-08T18:11:12.480Z,2.57
2022-12-08T18:14:00.109Z,1.91
2022-12-08T18:16:47.789Z,2.22
2022-12-08T18:19:35.459Z,2.37
2022-12-08T18:22:23.035Z,2.06
2022-12-08T18:25:10.643Z,1.92
2022-12-08T18:27:58.208Z,1.82
2022-12-08T18:30:45.892Z,1.81
2022-12-08T18:33:33.549Z,1.70
2022-12-08T18:36:21.150Z,1.82
2022-12-08T18:39:11.001Z,2.01
2022-12-08T18:41:58.779Z,2.12
2022-12-08T18:44:46.383Z,2.08
2022-12-08T18:47:33.934Z,1.99
2022-12-08T18:50:21.549Z,1.85
2022-12-08T18:53:09.121Z,1.70
2022-12-08T18:55:56.790Z,1.69
2022-12-08T18:58:44.358Z,1.28
2022-12-08T19:01:31.996Z,1.52
2022-12-08T19:04:28.379Z,1.45
2022-12-08T19:07:16.721Z,0.91
2022-12-08T19:10:04.545Z,0.95
2022-12-08T19:12:52.357Z,0.84
2022-12-08T19:15:39.973Z,1.28
2022-12-08T19:18:27.645Z,0.99
2022-12-08T19:21:15.215Z,1.05
2022-12-08T19:24:02.784Z,0.83
2022-12-08T19:26:50.381Z,0.88
2022-12-08T19:29:37.979Z,0.93
2022-12-08T19:32:25.591Z,1.13
2022-12-08T19:35:13.199Z,1.05
2022-12-08T19:38:00.775Z,1.38
2022-12-08T19:40:48.370Z,1.07
2022-12-08T19:43:36.000Z,1.12
2022-12-08T19:46:23.736Z,1.09
2022-12-08T19:49:11.387Z,0.96
2022-12-08T19:51:58.989Z,0.88
2022-12-08T19:54:46.579Z,0.97
2022-12-08T19:57:34.153Z,1.04
2022-12-08T20:00:21.770Z,0.45
2022-12-08T20:03:09.491Z,0.59
2022-12-08T20:05:57.147Z,0.57
2022-12-08T20:08:50.227Z,0.67
2022-12-08T20:11:38.248Z,0.64
2022-12-08T20:14:25.858Z,0.48
2022-12-08T20:17:13.430Z,0.56
2022-12-08T20:20:06.538Z,0.46
2022-12-08T20:22:54.871Z,0.23
2022-12-08T20:25:42.501Z,0.27
2022-12-08T20:28:30.084Z,0.15
2022-12-08T20:31:17.743Z,0.12
2022-12-08T20:34:05.406Z,0.16
2022-12-08T20:36:53.027Z,0.14
2022-12-08T20:39:40.594Z,0.27
2022-12-08T20:42:28.210Z,0.09
2022-12-08T20:45:15.801Z,0.11
2022-12-08T20:48:03.503Z,0.18
2022-12-08T20:50:51.095Z,0.15
2022-12-08T20:53:38.871Z,0.15
2022-12-08T20:56:26.514Z,0.14
2022-12-08T20:59:14.256Z,0.22
2022-12-08T21:02:02.127Z,-0.04
2022-12-08T21:04:50.016Z,0.19
2022-12-08T21:07:37.730Z,0.31
2022-12-08T21:10:25.417Z,0.43
2022-12-08T21:13:13.025Z,0.31
2022-12-08T21:16:00.943Z,0.42
2022-12-08T21:18:48.714Z,0.55
2022-12-08T21:21:36.493Z,0.70
2022-12-08T21:24:26.621Z,1.10
2022-12-08T21:27:17.941Z,1.67
2022-12-08T21:30:06.144Z,1.68
2022-12-08T21:32:54.146Z,1.85
2022-12-08T21:35:41.850Z,2.07
2022-12-08T21:38:29.545Z,2.82
2022-12-08T21:41:17.190Z,2.53
2022-12-08T21:44:04.871Z,1.47
2022-12-08T21:46:52.602Z,1.88
2022-12-08T21:49:40.427Z,1.92
2022-12-08T21:52:28.167Z,2.35
2022-12-08T21:55:17.777Z,2.89
2022-12-08T21:58:05.576Z,3.23
2022-12-08T22:00:53.433Z,3.86
2022-12-08T22:03:41.149Z,3.75
2022-12-08T22:06:29.095Z,3.76
2022-12-08T22:09:16.979Z,3.07
2022-12-08T22:12:04.731Z,2.76
2022-12-08T22:14:52.452Z,2.65
2022-12-08T22:17:40.170Z,3.53
2022-12-08T22:20:28.200Z,3.57
2022-12-08T22:23:15.952Z,3.98
2022-12-08T22:26:03.684Z,4.12
2022-12-08T22:28:51.311Z,4.39
2022-12-08T22:31:38.950Z,4.95
2022-12-08T22:34:26.831Z,4.90
2022-12-08T22:37:14.409Z,4.41
2022-12-08T22:40:02.024Z,3.63
2022-12-08T22:42:49.628Z,3.41
2022-12-08T22:45:37.537Z,3.05
2022-12-08T22:48:25.417Z,2.56
2022-12-08T22:51:13.028Z,2.40
2022-12-08T22:54:00.593Z,2.15
2022-12-08T22:56:48.228Z,2.06
2022-12-08T22:59:35.817Z,1.87
2022-12-08T23:02:23.538Z,1.46
2022-12-08T23:05:13.183Z,1.30
2022-12-08T23:08:01.139Z,0.90
2022-12-08T23:10:48.917Z,0.97
2022-12-08T23:13:36.563Z,0.87
2022-12-08T23:16:24.437Z,1.09
2022-12-08T23:19:12.170Z,0.85
2022-12-08T23:21:59.755Z,0.86
2022-12-08T23:24:47.592Z,0.87
2022-12-08T23:27:35.189Z,0.84
2022-12-08T23:30:22.777Z,0.84
2022-12-08T23:33:10.640Z,0.74
2022-12-08T23:35:58.390Z,0.66
2022-12-08T23:38:46.188Z,0.52
2022-12-08T23:41:33.833Z,0.64
2022-12-08T23:44:21.432Z,0.65
2022-12-08T23:47:09.147Z,0.66
2022-12-08T23:49:56.855Z,0.52
2022-12-08T23:52:44.484Z,0.41
2022-12-08T23:55:32.102Z,0.65
2022-12-08T23:58:19.718Z,0.30
